Mustafa Sofuoglu — TCOJ7 — position and weather

sailwx.info

Track history (hours):
 
Tides and Currents Weather Stations Pressure Air Temp Water Temp Dewpoint Dewpoint Depression Visibility Wind Speed Wind Dir Waves Ship Positions

Mustafa Sofuoglu

Last reported at 2014-Nov-24 07:33 UTC. Time now 2014-Nov-24 08:16 UTC.
Position N 40°55' E 029°01'.

Length 106 m; draft 5.4 m.

Type: Cargo ship. MMSI: 271000831.

Date/timePositionNaut miles runAvg speedWind from/ knotsBaromVisibWave heightAir tempDewpointWater temp
2014-Nov-24 07:33N 40°55' E 029°01'8 8.3
2014-Nov-24 06:33N 40°49' E 029°08'1211.7
2014-Nov-24 05:32N 40°45' E 029°23'1110.9
2014-Nov-24 04:30N 40°45' E 029°38'  
2014-Nov-18 17:33N 41°15' E 029°07'2 2.3
2014-Nov-18 16:33N 41°17' E 029°05'33910.1
2014-Nov-17 07:08N 46°36' E 031°43'711.6
2014-Nov-17 06:33N 46°37' E 031°53'9 9.2
2014-Nov-17 05:33N 46°46' E 031°53'6 6.0
2014-Nov-17 04:33N 46°51' E 031°59'0 0.0
2014-Nov-16 22:04N 46°51' E 031°59'0 0.0
2014-Nov-16 21:28N 46°51' E 031°59'0 0.0
2014-Nov-16 20:31N 46°51' E 031°59'0 0.0
2014-Nov-16 19:31N 46°51' E 031°59'0 0.0
2014-Nov-16 18:31N 46°51' E 031°59'0 0.0
2014-Nov-16 17:31N 46°51' E 031°59'0 0.0
2014-Nov-16 16:31N 46°51' E 031°59'0 0.0
2014-Nov-16 15:31N 46°51' E 031°59'0 0.0
2014-Nov-16 14:31N 46°51' E 031°59'0 0.0
2014-Nov-16 13:31N 46°51' E 031°59'0 0.0
2014-Nov-16 12:31N 46°51' E 031°59'0 0.0
2014-Nov-16 11:31N 46°51' E 031°59'0 0.0
2014-Nov-16 10:31N 46°51' E 031°59'0 0.0
2014-Nov-16 09:31N 46°51' E 031°59'2 1.8
2014-Nov-16 08:34N 46°51' E 031°56'9 8.6
2014-Nov-16 07:34N 46°42' E 031°56'1110.5
2014-Nov-16 06:34N 46°36' E 031°44'1211.4
2014-Nov-16 05:33N 46°35' E 031°27'41 8.1
2014-Nov-16 00:27N 46°01' E 030°52'  
Track history (hours):
 
Tides and Currents Weather Stations Pressure Air Temp Water Temp Dewpoint Dewpoint Depression Visibility Wind Speed Wind Dir Waves Ship Positions

Mustafa Sofuoglu

Last reported at 2014-Nov-24 07:33 UTC. Time now 2014-Nov-24 08:16 UTC.
Position N 40°55' E 029°01'.

Length 106 m; draft 5.4 m.

Type: Cargo ship. MMSI: 271000831.

Date/timePositionNaut miles runAvg speedWind from/ knotsBaromVisibWave heightAir tempDewpointWater temp
2014-Nov-24 07:33N 40°55' E 029°01'8 8.3
2014-Nov-24 06:33N 40°49' E 029°08'1211.7
2014-Nov-24 05:32N 40°45' E 029°23'1110.9
2014-Nov-24 04:30N 40°45' E 029°38'  
2014-Nov-18 17:33N 41°15' E 029°07'2 2.3
2014-Nov-18 16:33N 41°17' E 029°05'33910.1
2014-Nov-17 07:08N 46°36' E 031°43'711.6
2014-Nov-17 06:33N 46°37' E 031°53'9 9.2
2014-Nov-17 05:33N 46°46' E 031°53'6 6.0
2014-Nov-17 04:33N 46°51' E 031°59'0 0.0
2014-Nov-16 22:04N 46°51' E 031°59'0 0.0
2014-Nov-16 21:28N 46°51' E 031°59'0 0.0
2014-Nov-16 20:31N 46°51' E 031°59'0 0.0
2014-Nov-16 19:31N 46°51' E 031°59'0 0.0
2014-Nov-16 18:31N 46°51' E 031°59'0 0.0
2014-Nov-16 17:31N 46°51' E 031°59'0 0.0
2014-Nov-16 16:31N 46°51' E 031°59'0 0.0
2014-Nov-16 15:31N 46°51' E 031°59'0 0.0
2014-Nov-16 14:31N 46°51' E 031°59'0 0.0
2014-Nov-16 13:31N 46°51' E 031°59'0 0.0
2014-Nov-16 12:31N 46°51' E 031°59'0 0.0
2014-Nov-16 11:31N 46°51' E 031°59'0 0.0
2014-Nov-16 10:31N 46°51' E 031°59'0 0.0
2014-Nov-16 09:31N 46°51' E 031°59'2 1.8
2014-Nov-16 08:34N 46°51' E 031°56'9 8.6
2014-Nov-16 07:34N 46°42' E 031°56'1110.5
2014-Nov-16 06:34N 46°36' E 031°44'1211.4
2014-Nov-16 05:33N 46°35' E 031°27'41 8.1
2014-Nov-16 00:27N 46°01' E 030°52'  

Dump ship's entire track history